createdAt,value
2023-03-05T00:01:35.695Z,9.25
2023-03-05T00:04:03.722Z,8.50
2023-03-05T00:06:31.413Z,9.57
2023-03-05T00:08:58.556Z,8.52
2023-03-05T00:11:29.693Z,8.52
2023-03-05T00:13:57.468Z,8.82
2023-03-05T00:16:26.705Z,8.60
2023-03-05T00:18:54.848Z,8.95
2023-03-05T00:21:31.607Z,9.57
2023-03-05T00:24:01.421Z,8.63
2023-03-05T00:26:28.860Z,8.25
2023-03-05T00:28:57.519Z,8.75
2023-03-05T00:31:30.118Z,9.45
2023-03-05T00:33:59.806Z,10.20
2023-03-05T00:36:26.526Z,9.02
2023-03-05T00:38:53.265Z,9.13
2023-03-05T00:41:19.795Z,9.32
2023-03-05T00:43:47.002Z,8.82
2023-03-05T00:46:13.533Z,8.50
2023-03-05T00:48:41.341Z,8.05
2023-03-05T00:51:09.098Z,8.30
2023-03-05T00:53:35.830Z,8.95
2023-03-05T00:56:02.338Z,8.57
2023-03-05T00:58:29.436Z,8.02
2023-03-05T01:01:00.033Z,8.77
2023-03-05T01:03:27.404Z,8.48
2023-03-05T01:05:55.709Z,9.10
2023-03-05T01:08:22.193Z,8.18
2023-03-05T01:10:49.144Z,7.72
2023-03-05T01:13:15.848Z,8.27
2023-03-05T01:15:42.334Z,7.70
2023-03-05T01:18:09.013Z,7.97
2023-03-05T01:20:35.899Z,8.23
2023-03-05T01:23:02.732Z,8.35
2023-03-05T01:25:29.233Z,8.38
2023-03-05T01:27:56.140Z,7.93
2023-03-05T01:30:22.636Z,8.23
2023-03-05T01:32:49.062Z,7.82
2023-03-05T01:35:19.198Z,8.50
2023-03-05T01:37:46.220Z,8.15
2023-03-05T01:40:15.794Z,8.38
2023-03-05T01:42:55.253Z,8.13
2023-03-05T01:45:22.131Z,8.10
2023-03-05T01:47:48.938Z,9.00
2023-03-05T01:50:22.924Z,8.55
2023-03-05T01:52:55.183Z,8.73
2023-03-05T01:55:24.488Z,7.78
2023-03-05T01:57:57.081Z,8.48
2023-03-05T02:00:30.929Z,8.85
2023-03-05T02:03:02.977Z,8.73
2023-03-05T02:05:32.720Z,8.32
2023-03-05T02:08:01.034Z,7.90
2023-03-05T02:10:34.718Z,8.73
2023-03-05T02:13:06.396Z,7.78
2023-03-05T02:15:33.970Z,7.85
2023-03-05T02:18:01.289Z,8.52
2023-03-05T02:20:32.046Z,8.18
2023-03-05T02:22:58.479Z,8.10
2023-03-05T02:25:29.767Z,9.23
2023-03-05T02:28:25.375Z,8.52
2023-03-05T02:30:52.188Z,8.48
2023-03-05T02:33:19.687Z,8.18
2023-03-05T02:35:47.299Z,7.95
2023-03-05T02:38:16.731Z,8.30
2023-03-05T02:40:43.464Z,8.02
2023-03-05T02:43:10.914Z,7.85
2023-03-05T02:45:38.273Z,8.52
2023-03-05T02:48:04.856Z,8.02
2023-03-05T02:50:32.097Z,8.38
2023-03-05T02:52:58.913Z,8.65
2023-03-05T02:55:25.510Z,8.48
2023-03-05T02:57:51.948Z,8.52
2023-03-05T03:00:18.635Z,7.90
2023-03-05T03:02:45.152Z,8.60
2023-03-05T03:05:11.647Z,8.35
2023-03-05T03:07:38.210Z,8.25
2023-03-05T03:10:05.786Z,8.23
2023-03-05T03:12:32.279Z,8.30
2023-03-05T03:15:00.895Z,7.75
2023-03-05T03:17:27.383Z,7.30
2023-03-05T03:19:53.828Z,8.23
2023-03-05T03:22:20.236Z,8.05
2023-03-05T03:24:46.736Z,8.27
2023-03-05T03:27:13.235Z,8.10
2023-03-05T03:29:39.689Z,8.63
2023-03-05T03:32:06.439Z,8.82
2023-03-05T03:34:32.982Z,9.02
2023-03-05T03:36:59.435Z,7.97
2023-03-05T03:39:25.873Z,7.97
2023-03-05T03:41:53.431Z,7.88
2023-03-05T03:44:21.381Z,8.45
2023-03-05T03:46:49.577Z,8.52
2023-03-05T03:49:24.893Z,7.95
2023-03-05T03:51:54.296Z,8.82
2023-03-05T03:54:21.962Z,9.73
2023-03-05T03:56:48.395Z,8.20
2023-03-05T03:59:14.916Z,9.02
2023-03-05T04:01:41.504Z,8.70
2023-03-05T04:04:08.790Z,8.27
2023-03-05T04:06:35.668Z,9.52
2023-03-05T04:09:02.285Z,8.55
2023-03-05T04:11:29.010Z,8.85
2023-03-05T04:13:55.641Z,8.35
2023-03-05T04:16:22.336Z,8.43
2023-03-05T04:18:48.983Z,9.43
2023-03-05T04:21:15.438Z,8.43
2023-03-05T04:23:41.979Z,8.98
2023-03-05T04:26:08.617Z,9.25
2023-03-05T04:28:35.790Z,8.05
2023-03-05T04:31:03.164Z,8.60
2023-03-05T04:33:29.614Z,7.97
2023-03-05T04:35:56.197Z,8.35
2023-03-05T04:38:22.776Z,8.43
2023-03-05T04:40:49.210Z,10.15
2023-03-05T04:43:15.617Z,8.15
2023-03-05T04:45:43.947Z,8.15
2023-03-05T04:48:11.101Z,8.07
2023-03-05T04:50:38.044Z,8.70
2023-03-05T04:53:04.688Z,7.95
2023-03-05T04:55:31.418Z,8.55
2023-03-05T04:57:58.410Z,8.85
2023-03-05T05:00:25.175Z,8.20
2023-03-05T05:02:52.290Z,8.82
2023-03-05T05:05:22.456Z,8.45
2023-03-05T05:07:49.043Z,9.05
2023-03-05T05:10:16.853Z,8.68
2023-03-05T05:12:43.479Z,8.73
2023-03-05T05:15:11.868Z,8.40
2023-03-05T05:17:38.345Z,8.90
2023-03-05T05:20:08.202Z,8.38
2023-03-05T05:22:35.161Z,8.68
2023-03-05T05:25:02.096Z,9.20
2023-03-05T05:27:28.529Z,9.38
2023-03-05T05:29:55.028Z,9.95
2023-03-05T05:32:24.054Z,9.20
2023-03-05T05:34:57.786Z,10.30
2023-03-05T05:37:25.417Z,9.50
2023-03-05T05:39:52.374Z,8.95
2023-03-05T05:42:21.215Z,9.48
2023-03-05T05:44:47.760Z,9.23
2023-03-05T05:47:15.995Z,8.57
2023-03-05T05:49:42.643Z,8.75
2023-03-05T05:52:09.084Z,8.88
2023-03-05T05:54:35.590Z,8.60
2023-03-05T05:57:02.048Z,9.57
2023-03-05T05:59:28.550Z,8.68
2023-03-05T06:01:55.134Z,8.52
2023-03-05T06:04:21.864Z,9.05
2023-03-05T06:06:48.363Z,9.35
2023-03-05T06:09:15.089Z,9.23
2023-03-05T06:11:41.652Z,9.43
2023-03-05T06:14:08.768Z,9.05
2023-03-05T06:16:35.407Z,9.63
2023-03-05T06:19:04.513Z,8.73
2023-03-05T06:21:31.408Z,8.90
2023-03-05T06:23:58.672Z,9.35
2023-03-05T06:26:25.656Z,8.88
2023-03-05T06:28:52.588Z,9.98
2023-03-05T06:31:27.709Z,9.70
2023-03-05T06:33:56.483Z,13.20
2023-03-05T06:36:24.846Z,8.23
2023-03-05T06:38:53.502Z,9.00
2023-03-05T06:41:23.020Z,8.60
2023-03-05T06:43:49.508Z,10.05
2023-03-05T06:46:21.960Z,9.30
2023-03-05T06:48:49.181Z,8.65
2023-03-05T06:51:20.252Z,8.65
2023-03-05T06:53:49.382Z,8.02
2023-03-05T06:56:17.194Z,7.43
2023-03-05T06:58:46.193Z,8.00
2023-03-05T07:01:13.928Z,9.23
2023-03-05T07:03:41.128Z,8.75
2023-03-05T07:06:12.006Z,8.90
2023-03-05T07:08:38.972Z,9.38
2023-03-05T07:11:19.944Z,8.90
2023-03-05T07:13:47.781Z,8.02
2023-03-05T07:16:16.618Z,8.88
2023-03-05T07:18:43.738Z,9.07
2023-03-05T07:21:14.709Z,9.20
2023-03-05T07:23:41.093Z,8.20
2023-03-05T07:26:07.568Z,8.57
2023-03-05T07:28:34.567Z,8.18
2023-03-05T07:31:04.777Z,7.40
2023-03-05T07:33:32.076Z,7.60
2023-03-05T07:35:58.650Z,6.57
2023-03-05T07:38:25.213Z,6.65
2023-03-05T07:40:51.649Z,7.25
2023-03-05T07:43:18.859Z,6.63
2023-03-05T07:45:46.272Z,6.22
2023-03-05T07:48:15.274Z,6.90
2023-03-05T07:50:42.037Z,6.97
2023-03-05T07:53:09.213Z,6.30
2023-03-05T07:55:42.200Z,6.18
2023-03-05T07:58:08.695Z,6.07
2023-03-05T08:00:35.127Z,5.75
2023-03-05T08:03:01.610Z,6.05
2023-03-05T08:05:28.172Z,6.85
2023-03-05T08:07:54.593Z,6.57
2023-03-05T08:10:21.058Z,6.70
2023-03-05T08:12:47.534Z,6.30
2023-03-05T08:15:13.974Z,5.43
2023-03-05T08:17:40.462Z,6.07
2023-03-05T08:20:10.700Z,5.95
2023-03-05T08:22:37.870Z,5.47
2023-03-05T08:25:06.193Z,5.22
2023-03-05T08:27:32.620Z,5.50
2023-03-05T08:30:02.567Z,5.35
2023-03-05T08:32:29.247Z,5.30
2023-03-05T08:34:58.312Z,4.68
2023-03-05T08:37:25.106Z,4.28
2023-03-05T08:39:51.560Z,4.28
2023-03-05T08:42:18.088Z,4.53
2023-03-05T08:44:44.678Z,4.45
2023-03-05T08:47:11.161Z,3.70
2023-03-05T08:49:37.600Z,4.32
2023-03-05T08:52:04.132Z,3.33
2023-03-05T08:54:30.604Z,2.95
2023-03-05T08:56:57.036Z,3.30
2023-03-05T08:59:23.499Z,2.92
2023-03-05T09:01:50.158Z,3.00
2023-03-05T09:04:16.846Z,3.60
2023-03-05T09:06:43.360Z,3.17
2023-03-05T09:09:10.048Z,3.22
2023-03-05T09:11:36.999Z,3.20
2023-03-05T09:14:04.893Z,2.60
2023-03-05T09:16:31.569Z,3.45
2023-03-05T09:18:59.172Z,3.03
2023-03-05T09:21:25.744Z,2.90
2023-03-05T09:23:52.318Z,2.83
2023-03-05T09:26:20.065Z,3.70
2023-03-05T09:28:47.659Z,3.15
2023-03-05T09:31:14.196Z,2.50
2023-03-05T09:33:40.849Z,3.00
2023-03-05T09:36:18.392Z,2.80
2023-03-05T09:38:44.843Z,2.55
2023-03-05T09:41:27.941Z,2.47
2023-03-05T09:44:15.969Z,3.50
2023-03-05T09:46:48.417Z,3.17
2023-03-05T09:49:20.577Z,3.80
2023-03-05T09:51:51.311Z,3.03
2023-03-05T09:54:22.926Z,2.85
2023-03-05T09:56:56.534Z,3.17
2023-03-05T09:59:25.853Z,2.97
2023-03-05T10:01:53.327Z,3.42
2023-03-05T10:04:42.236Z,3.88
2023-03-05T10:07:16.791Z,3.58
2023-03-05T10:09:48.884Z,8.35
2023-03-05T10:12:27.687Z,3.55
2023-03-05T10:14:55.114Z,5.35
2023-03-05T10:17:39.483Z,3.58
2023-03-05T10:25:51.775Z,4.72
2023-03-05T10:28:25.129Z,16.25
2023-03-05T10:31:01.051Z,5.53
2023-03-05T10:33:42.236Z,4.13
2023-03-05T10:36:16.663Z,6.05
2023-03-05T10:39:14.654Z,5.57
2023-03-05T10:42:02.360Z,4.32
2023-03-05T10:44:31.546Z,4.43
2023-03-05T10:47:00.641Z,14.15
2023-03-05T10:49:32.229Z,6.13
2023-03-05T10:52:06.178Z,5.50
2023-03-05T10:54:35.731Z,4.45
2023-03-05T10:57:05.063Z,3.78
2023-03-05T10:59:32.339Z,5.35
2023-03-05T11:02:06.277Z,10.43
2023-03-05T11:04:36.561Z,4.57
2023-03-05T11:07:27.608Z,4.50
2023-03-05T11:10:00.124Z,2.80
2023-03-05T11:12:27.529Z,3.42
2023-03-05T11:15:06.287Z,3.63
2023-03-05T11:17:44.432Z,3.70
2023-03-05T11:20:29.223Z,4.00
2023-03-05T11:23:04.504Z,4.55
2023-03-05T11:25:32.834Z,3.75
2023-03-05T11:28:01.036Z,4.50
2023-03-05T11:30:33.979Z,4.88
2023-03-05T11:33:20.349Z,4.30
2023-03-05T11:35:48.435Z,4.20
2023-03-05T11:38:20.962Z,3.97
2023-03-05T11:40:48.314Z,4.55
2023-03-05T11:43:18.038Z,4.40
2023-03-05T11:45:45.758Z,6.35
2023-03-05T11:48:20.850Z,3.55
2023-03-05T11:50:54.236Z,3.97
2023-03-05T11:53:25.328Z,4.07
2023-03-05T11:56:31.564Z,5.55
2023-03-05T11:59:05.076Z,5.30
2023-03-05T12:01:35.912Z,4.95
2023-03-05T12:04:04.224Z,4.88
2023-03-05T12:06:43.045Z,3.95
2023-03-05T12:09:30.197Z,4.18
2023-03-05T12:12:06.196Z,5.18
2023-03-05T12:15:00.998Z,5.75
2023-03-05T12:18:09.066Z,4.38
2023-03-05T12:20:45.762Z,4.32
2023-03-05T12:23:15.660Z,7.20
2023-03-05T12:25:42.045Z,4.13
2023-03-05T12:28:15.260Z,6.05
2023-03-05T12:30:42.288Z,4.77
2023-03-05T12:33:43.816Z,5.78
2023-03-05T12:36:19.251Z,4.82
2023-03-05T12:38:51.821Z,4.32
2023-03-05T12:41:25.394Z,4.57
2023-03-05T12:44:05.250Z,4.53
2023-03-05T12:46:43.545Z,5.18
2023-03-05T12:49:19.123Z,3.88
2023-03-05T12:51:56.591Z,4.07
2023-03-05T12:54:26.781Z,3.95
2023-03-05T12:56:55.930Z,4.15
2023-03-05T12:59:27.867Z,4.25
2023-03-05T13:02:00.469Z,5.03
2023-03-05T13:04:30.411Z,5.65
2023-03-05T13:07:04.807Z,5.35
2023-03-05T13:09:35.719Z,5.28
2023-03-05T13:12:04.769Z,4.65
2023-03-05T13:14:44.950Z,5.18
2023-03-05T13:17:37.971Z,5.00
2023-03-05T13:20:31.335Z,5.18
2023-03-05T13:23:16.005Z,5.10
2023-03-05T13:25:43.561Z,3.90
2023-03-05T13:28:14.153Z,4.95
2023-03-05T13:30:50.251Z,4.68
2023-03-05T13:33:20.002Z,4.82
2023-03-05T13:35:47.338Z,4.88
2023-03-05T13:38:28.450Z,4.82
2023-03-05T13:41:11.395Z,5.47
2023-03-05T13:43:57.694Z,5.15
2023-03-05T13:46:38.641Z,4.97
2023-03-05T13:49:23.448Z,4.70
2023-03-05T13:51:56.467Z,4.50
2023-03-05T13:54:24.884Z,5.07
2023-03-05T13:57:02.894Z,5.70
2023-03-05T13:59:32.310Z,4.75
2023-03-05T14:02:00.702Z,6.32
2023-03-05T14:04:28.238Z,5.88
2023-03-05T14:06:59.611Z,4.57
2023-03-05T14:09:32.096Z,4.80
2023-03-05T14:12:00.736Z,4.28
2023-03-05T14:14:29.065Z,4.38
2023-03-05T14:16:56.064Z,4.20
2023-03-05T14:19:38.834Z,5.10
2023-03-05T14:22:06.485Z,5.10
2023-03-05T14:24:34.019Z,5.10
2023-03-05T14:27:08.629Z,4.60
2023-03-05T14:29:36.196Z,4.63
2023-03-05T14:32:05.972Z,4.10
2023-03-05T14:34:39.744Z,4.30
2023-03-05T14:37:23.275Z,4.47
2023-03-05T14:39:54.107Z,4.57
2023-03-05T14:42:32.952Z,4.28
2023-03-05T14:45:16.217Z,4.28
2023-03-05T14:47:45.676Z,4.07
2023-03-05T14:50:16.844Z,4.00
2023-03-05T14:52:44.747Z,4.20
2023-03-05T14:55:20.105Z,4.90
2023-03-05T14:57:47.951Z,4.32
2023-03-05T15:00:24.078Z,7.85
2023-03-05T15:02:50.803Z,4.40
2023-03-05T15:05:18.366Z,5.85
2023-03-05T15:07:46.386Z,5.32
2023-03-05T15:10:19.370Z,4.20
2023-03-05T15:12:46.879Z,4.50
2023-03-05T15:15:14.704Z,4.18
2023-03-05T15:17:43.652Z,3.78
2023-03-05T15:20:20.076Z,4.13
2023-03-05T15:22:47.021Z,4.88
2023-03-05T15:25:13.738Z,4.55
2023-03-05T15:27:40.928Z,4.13
2023-03-05T15:30:09.489Z,3.85
2023-03-05T15:32:36.052Z,4.07
2023-03-05T15:35:02.643Z,3.63
2023-03-05T15:37:29.396Z,3.42
2023-03-05T15:39:55.917Z,3.58
2023-03-05T15:42:22.423Z,3.50
2023-03-05T15:44:48.963Z,3.72
2023-03-05T15:47:15.517Z,3.67
2023-03-05T15:49:42.011Z,3.70
2023-03-05T15:52:08.685Z,3.85
2023-03-05T15:54:36.259Z,15.80
2023-03-05T15:57:03.443Z,10.82
2023-03-05T15:59:29.903Z,3.97
2023-03-05T16:01:56.492Z,3.20
2023-03-05T16:04:22.995Z,3.47
2023-03-05T16:06:50.517Z,3.70
2023-03-05T16:09:19.059Z,3.28
2023-03-05T16:11:47.972Z,3.80
2023-03-05T16:14:19.224Z,5.18
2023-03-05T16:16:46.052Z,3.60
2023-03-05T16:19:15.547Z,3.75
2023-03-05T16:21:42.456Z,4.18
2023-03-05T16:24:09.201Z,4.13
2023-03-05T16:26:37.256Z,4.60
2023-03-05T16:29:04.193Z,4.05
2023-03-05T16:31:34.025Z,3.50
2023-03-05T16:34:01.600Z,3.55
2023-03-05T16:36:35.018Z,3.35
2023-03-05T16:39:04.151Z,3.25
2023-03-05T16:41:30.711Z,2.67
2023-03-05T16:43:59.438Z,3.67
2023-03-05T16:46:28.494Z,3.50
2023-03-05T16:48:55.389Z,3.42
2023-03-05T16:51:22.605Z,3.05
2023-03-05T16:53:49.553Z,2.80
2023-03-05T16:56:16.615Z,4.05
2023-03-05T16:58:43.166Z,3.67
2023-03-05T17:01:16.418Z,3.58
2023-03-05T17:03:44.005Z,4.20
2023-03-05T17:06:23.140Z,4.20
2023-03-05T17:08:50.669Z,3.40
2023-03-05T17:11:17.560Z,5.13
2023-03-05T17:13:46.491Z,4.90
2023-03-05T17:16:16.917Z,4.78
2023-03-05T17:18:43.444Z,6.60
2023-03-05T17:21:11.572Z,8.23
2023-03-05T17:23:38.764Z,5.85
2023-03-05T17:26:13.834Z,5.15
2023-03-05T17:28:40.950Z,4.53
2023-03-05T17:31:07.690Z,4.22
2023-03-05T17:33:35.230Z,6.93
2023-03-05T17:36:02.538Z,5.30
2023-03-05T17:38:29.626Z,4.50
2023-03-05T17:40:56.151Z,4.47
2023-03-05T17:43:22.707Z,4.18
2023-03-05T17:45:49.232Z,4.22
2023-03-05T17:48:16.233Z,4.03
2023-03-05T17:50:44.921Z,4.68
2023-03-05T17:53:11.561Z,3.20
2023-03-05T17:55:38.968Z,4.88
2023-03-05T17:58:05.549Z,4.30
2023-03-05T18:00:32.527Z,3.80
2023-03-05T18:02:59.753Z,3.50
2023-03-05T18:05:27.557Z,4.00
2023-03-05T18:07:55.398Z,4.72
2023-03-05T18:10:24.518Z,4.75
2023-03-05T18:12:51.545Z,3.47
2023-03-05T18:15:20.967Z,4.80
2023-03-05T18:17:47.692Z,12.35
2023-03-05T18:20:31.075Z,21.95
2023-03-05T18:22:59.748Z,10.35
2023-03-05T18:25:30.692Z,9.68
2023-03-05T18:27:58.971Z,14.63
2023-03-05T18:30:26.056Z,18.63
2023-03-05T18:32:52.567Z,10.93
2023-03-05T18:35:19.185Z,6.95
2023-03-05T18:37:45.773Z,6.18
2023-03-05T18:40:19.556Z,7.45
2023-03-05T18:42:46.211Z,6.22
2023-03-05T18:45:17.778Z,6.30
2023-03-05T18:47:44.628Z,5.30
2023-03-05T18:50:14.821Z,7.50
2023-03-05T18:52:42.419Z,11.93
2023-03-05T18:55:15.585Z,8.23
2023-03-05T18:57:42.109Z,8.52
2023-03-05T19:00:09.428Z,7.85
2023-03-05T19:02:35.932Z,6.50
2023-03-05T19:05:02.794Z,7.45
2023-03-05T19:07:29.893Z,6.68
2023-03-05T19:09:59.602Z,7.25
2023-03-05T19:12:35.121Z,7.10
2023-03-05T19:15:02.665Z,5.97
2023-03-05T19:17:31.657Z,8.60
2023-03-05T19:20:06.216Z,9.55
2023-03-05T19:22:33.355Z,8.23
2023-03-05T19:25:00.343Z,7.47
2023-03-05T19:27:27.049Z,9.32
2023-03-05T19:29:53.638Z,10.10
2023-03-05T19:32:21.887Z,10.07
2023-03-05T19:34:48.813Z,13.45
2023-03-05T19:37:15.690Z,11.52
2023-03-05T19:39:42.511Z,9.60
2023-03-05T19:42:09.228Z,9.30
2023-03-05T19:44:36.164Z,9.85
2023-03-05T19:47:03.006Z,8.48
2023-03-05T19:49:29.795Z,8.32
2023-03-05T19:51:56.885Z,8.55
2023-03-05T19:54:23.668Z,10.55
2023-03-05T19:56:53.585Z,10.43
2023-03-05T19:59:21.070Z,9.10
2023-03-05T20:01:48.946Z,9.50
2023-03-05T20:04:19.415Z,8.30
2023-03-05T20:06:46.286Z,9.25
2023-03-05T20:09:14.019Z,8.13
2023-03-05T20:11:40.925Z,8.98
2023-03-05T20:14:07.610Z,8.00
2023-03-05T20:16:35.932Z,8.95
2023-03-05T20:19:03.672Z,10.20
2023-03-05T20:21:33.722Z,9.73
2023-03-05T20:24:03.844Z,9.02
2023-03-05T20:26:31.025Z,8.68
2023-03-05T20:28:57.850Z,8.00
2023-03-05T20:31:26.839Z,8.80
2023-03-05T20:33:56.081Z,7.97
2023-03-05T20:36:23.722Z,7.97
2023-03-05T20:38:50.493Z,7.90
2023-03-05T20:41:23.121Z,7.75
2023-03-05T20:43:51.509Z,8.45
2023-03-05T20:46:30.433Z,9.20
2023-03-05T20:49:02.354Z,8.75
2023-03-05T20:51:35.776Z,8.73
2023-03-05T20:54:13.277Z,8.27
2023-03-05T20:56:39.897Z,8.43
2023-03-05T20:59:08.835Z,8.85
2023-03-05T21:01:40.785Z,8.85
2023-03-05T21:04:07.951Z,9.52
2023-03-05T21:06:35.498Z,9.93
2023-03-05T21:09:02.665Z,8.55
2023-03-05T21:11:29.460Z,9.05
2023-03-05T21:13:56.011Z,9.68
2023-03-05T21:16:25.007Z,10.18
2023-03-05T21:18:52.623Z,8.73
2023-03-05T21:21:20.048Z,8.85
2023-03-05T21:23:49.486Z,8.27
2023-03-05T21:26:18.410Z,9.13
2023-03-05T21:28:45.083Z,8.13
2023-03-05T21:31:16.682Z,8.80
2023-03-05T21:33:43.524Z,9.25
2023-03-05T21:36:10.355Z,7.90
2023-03-05T21:38:36.957Z,8.60
2023-03-05T21:41:04.314Z,7.75
2023-03-05T21:43:31.613Z,8.02
2023-03-05T21:46:00.409Z,8.45
2023-03-05T21:48:27.286Z,11.00
2023-03-05T21:50:55.128Z,7.95
2023-03-05T21:53:21.854Z,8.15
2023-03-05T21:56:10.857Z,8.85
2023-03-05T21:58:37.334Z,8.18
2023-03-05T22:01:04.003Z,8.27
2023-03-05T22:03:30.815Z,8.10
2023-03-05T22:05:57.519Z,8.07
2023-03-05T22:08:24.540Z,7.68
2023-03-05T22:10:51.118Z,7.85
2023-03-05T22:13:20.781Z,7.53
2023-03-05T22:15:50.205Z,8.38
2023-03-05T22:18:20.113Z,7.13
2023-03-05T22:20:47.659Z,8.27
2023-03-05T22:23:15.649Z,7.55
2023-03-05T22:25:43.317Z,7.38
2023-03-05T22:28:11.387Z,8.13
2023-03-05T22:30:43.636Z,8.35
2023-03-05T22:33:11.012Z,8.20
2023-03-05T22:35:39.433Z,7.05
2023-03-05T22:38:06.628Z,8.07
2023-03-05T22:40:33.368Z,7.53
2023-03-05T22:43:07.571Z,7.78
2023-03-05T22:48:00.426Z,7.15
2023-03-05T22:50:27.186Z,7.95
2023-03-05T22:52:53.825Z,8.27
2023-03-05T22:55:20.844Z,8.30
2023-03-05T22:57:47.535Z,7.95
2023-03-05T23:00:18.282Z,7.65
2023-03-05T23:02:45.102Z,8.15
2023-03-05T23:05:11.735Z,7.47
2023-03-05T23:07:42.477Z,8.00
2023-03-05T23:10:11.137Z,7.50
2023-03-05T23:12:41.102Z,8.85
2023-03-05T23:15:10.251Z,8.38
2023-03-05T23:17:36.743Z,7.57
2023-03-05T23:20:05.090Z,7.15
2023-03-05T23:22:31.523Z,8.20
2023-03-05T23:24:58.026Z,7.60
2023-03-05T23:27:24.515Z,7.88
2023-03-05T23:30:15.438Z,6.85
2023-03-05T23:32:53.889Z,7.07
2023-03-05T23:35:22.445Z,7.18
2023-03-05T23:37:49.602Z,8.05
2023-03-05T23:40:37.907Z,8.35
2023-03-05T23:43:04.608Z,9.52
2023-03-05T23:45:31.777Z,7.18
2023-03-05T23:47:58.520Z,7.22
2023-03-05T23:50:28.485Z,8.00
2023-03-05T23:52:55.293Z,7.60
2023-03-05T23:55:27.438Z,8.43
2023-03-05T23:57:54.629Z,7.35
